Airfield :
LOGIN :

Register | Disclaimer

   EN    FR    IT 

 










Legend :    VFR   Marginal VFR   IFR   Intensive IFR   Very Intensive IFR
Visi :
Ceiling :
>= 8 km
>= 3000ft
5 to 8 km
1000 to 3000 ft
1500m to 5 km
500 to 1000 ft
800 to 1500m
200 to 500 ft
< 800m
< 200 ft
Symbols :   Thunderstorms  Fog  Heavy snow  Heavy precipitations  Wind > 20 kt
SIGMETs :     Misc.  Thunderstorms  Icing  Turbulence  Mountain Waves  Volcanic Ashes






- Airport Elevation : 302 ft
- IATA code : CGN


EDDK - Cologne Bonn

CURRENT METAR :
  • 120550Z 16007KT 9999 -RA FEW012 SCT028 BKN035 04/03 Q1003 NOSIG

EXPIRED METARs :
  • 120520Z 17006KT 9999 -RA FEW013 BKN028 04/03 Q1003 NOSIG
  • 120450Z 16004KT 9999 -RA SCT025 BKN030 04/03 Q1003 NOSIG
  • 120420Z 14004KT 9999 FEW025 BKN030 04/02 Q1003 NOSIG
  • 120350Z 14005KT 9999 -RA SCT025 BKN035 03/02 Q1003 NOSIG
  • 120320Z 15008KT 9999 BKN035 04/02 Q1003 NOSIG

TAF TAF EDDK
Valid from the 12 at 06:00 until the 13 at 12:00 UTC


120500Z 1206/1312 18010KT 9999 BKN035
BECMG 1217/1219 14015KT
TEMPO 1301/1312 RA
PROB30
TEMPO 1301/1305 4000 RASN
BECMG 1306/1309 15010KT



MET'MAP, your aeronautical weather chart ! - Copyright ORBIFLY December 2007 - Disclaimer

ORBIFLY MET'MAP TEAM :

Programming & Development : Alexandra Zaïnal
Concept & original design : Baudouin d'Aumeries
Assistance for programming : Marc-Olivier Méhu
Technical & hardware support : Manuel Goepfert

Contact : metmap@orbifly.com




SOURCES & CREDITS :

   NOAA